Terminal Aerodrome Forecast
Issued by NWS

Home | Current Version | Previous Version | Text Only | Print | Product List | Glossary On
Versions: 1 2 3 4 5 6 7 8 9 10 11 12
000
FTUS46 KSGX 311700
TAFTRM
TAF
KTRM 311729Z 3118/0118 VRB06KT P6SM SCT200
     FM010100 33012KT P6SM SCT200
     FM010500 33012G20KT P6SM SCT200
     FM010800 33011KT P6SM BKN200
     FM011300 VRB06KT P6SM BKN200=

USA.gov is the U.S. government's official web portal to all federal, state and local government web resources and services.